F/V Le Natif 2 — FKVW — position and weather

sailwx.info

Track history (hours):
 
Tides and Currents Weather Stations Pressure Air Temp Water Temp Dewpoint Dewpoint Depression Visibility Wind Speed Wind Dir Waves Ship Positions

F/V Le Natif 2

Last reported at 2017-Aug-24 09:58 UTC. Time now 2017-Aug-24 10:24 UTC.
Position N 46°19' W 002°16'.

Length 16 m.

Type: Fishing. MMSI: 228131600.

Date/timePositionNaut miles runAvg speedWind from/ knotsBaromVisibWave heightAir tempDewpointWater temp
2017-Aug-24 09:58N 46°19' W 002°16'1 3.2
2017-Aug-24 09:30N 46°19' W 002°14'1 2.9
2017-Aug-24 09:00N 46°19' W 002°13'3 3.1
2017-Aug-24 08:10N 46°16' W 002°11'1 2.8
2017-Aug-24 07:42N 46°15' W 002°10'1 2.7
2017-Aug-24 07:19N 46°14' W 002°10'15 4.3
2017-Aug-24 03:51N 46°13' W 002°31'0 1.3
2017-Aug-24 03:30N 46°13' W 002°32'2 2.7
2017-Aug-24 02:49N 46°14' W 002°34'1 3.8
2017-Aug-24 02:30N 46°15' W 002°35'2 3.3
2017-Aug-24 02:00N 46°16' W 002°36'1 1.3
2017-Aug-24 01:30N 46°16' W 002°35'2 3.9
2017-Aug-24 00:58N 46°14' W 002°34'1 0.7
2017-Aug-24 00:11N 46°14' W 002°34'0 2.6
2017-Aug-24 00:00N 46°14' W 002°33'0 0.6
2017-Aug-23 23:19N 46°14' W 002°34'1 3.4
2017-Aug-23 23:00N 46°14' W 002°32'1 2.1
2017-Aug-23 22:23N 46°14' W 002°34'1 3.0
2017-Aug-23 22:00N 46°14' W 002°33'2 4.5
2017-Aug-23 21:30N 46°14' W 002°29'5 9.5
2017-Aug-23 21:00N 46°18' W 002°25'5 9.6
2017-Aug-23 20:30N 46°21' W 002°21'5 9.4
2017-Aug-23 20:00N 46°25' W 002°16'5 9.2
2017-Aug-23 19:29N 46°29' W 002°12'4 9.0
2017-Aug-23 19:00N 46°32' W 002°08'4 8.9
2017-Aug-23 18:30N 46°36' W 002°04'4 8.7
2017-Aug-23 18:00N 46°39' W 002°00'4 7.5
2017-Aug-23 17:30N 46°42' W 001°56'0 0.0
2017-Aug-23 17:00N 46°42' W 001°56'0 0.0
2017-Aug-23 16:30N 46°42' W 001°56'3 5.3
2017-Aug-23 16:00N 46°39' W 001°56'4 8.7
2017-Aug-23 15:30N 46°35' W 001°54'4 8.7
2017-Aug-23 15:00N 46°31' W 001°52'4 8.6
2017-Aug-23 14:30N 46°27' W 001°50'9 8.6
2017-Aug-23 13:29N 46°19' W 001°45'5 9.5
2017-Aug-23 13:00N 46°14' W 001°43'5 9.3
2017-Aug-23 12:27N 46°09' W 001°41'6 2.7
2017-Aug-23 10:23N 46°04' W 001°37'2 3.3
2017-Aug-23 09:55N 46°03' W 001°37'1 3.1
2017-Aug-23 09:30N 46°03' W 001°39'8 1.8
2017-Aug-23 05:00N 46°10' W 001°46'4 8.7
2017-Aug-23 04:30N 46°14' W 001°48'4 8.7
2017-Aug-23 04:00N 46°18' W 001°50'4 8.9
2017-Aug-23 03:30N 46°22' W 001°51'4 8.9
2017-Aug-23 03:00N 46°27' W 001°53'4 8.8
2017-Aug-23 02:30N 46°31' W 001°54'4 8.6
2017-Aug-23 02:00N 46°35' W 001°55'4 8.7
2017-Aug-23 01:30N 46°39' W 001°57'2 4.9
2017-Aug-23 01:00N 46°42' W 001°57'0 0.0
2017-Aug-22 15:14N 46°42' W 001°57'0 0.0
2017-Aug-22 15:00N 46°42' W 001°57'0 0.0
2017-Aug-22 14:30N 46°42' W 001°57'0 0.0
2017-Aug-22 14:01N 46°42' W 001°57'0 0.1
2017-Aug-22 13:30N 46°42' W 001°56'0 0.1
2017-Aug-22 13:00N 46°42' W 001°57'0 0.1
2017-Aug-22 12:30N 46°42' W 001°56'0 0.0
2017-Aug-22 12:00N 46°42' W 001°56'1 1.6
2017-Aug-22 11:30N 46°41' W 001°57'2 4.8
2017-Aug-22 11:00N 46°39' W 001°56'3 6.7
2017-Aug-22 10:31N 46°36' W 001°55'4 7.5
2017-Aug-22 10:00N 46°32' W 001°54'4 8.4
2017-Aug-22 09:31N 46°28' W 001°53'4 8.9
2017-Aug-22 09:00N 46°23' W 001°51'5 9.8
2017-Aug-22 08:30N 46°19' W 001°49'5 9.3
2017-Aug-22 08:00N 46°14' W 001°48'5 8.9
2017-Aug-22 07:27N 46°09' W 001°46'4 8.3
2017-Aug-22 06:59N 46°06' W 001°46'1 1.6
2017-Aug-22 06:18N 46°07' W 001°45'2 4.1
2017-Aug-22 05:56N 46°08' W 001°45'2 4.6
2017-Aug-22 05:30N 46°10' W 001°46'2 3.3
2017-Aug-22 05:00N 46°12' W 001°46'3 5.3
2017-Aug-22 04:30N 46°14' W 001°48'4 8.6
2017-Aug-22 04:00N 46°18' W 001°50'4 8.7
2017-Aug-22 03:30N 46°22' W 001°51'4 8.6
2017-Aug-22 03:01N 46°26' W 001°53'4 8.5
2017-Aug-22 02:30N 46°30' W 001°54'4 8.5
2017-Aug-22 02:00N 46°35' W 001°55'4 8.6
2017-Aug-22 01:31N 46°39' W 001°57'3 0.3
2017-Aug-21 16:34N 46°42' W 001°56'0 0.9
2017-Aug-21 16:30N 46°42' W 001°56'0 0.0
2017-Aug-21 16:00N 46°42' W 001°56'0 0.0
2017-Aug-21 15:30N 46°42' W 001°56'0 0.0
2017-Aug-21 15:00N 46°42' W 001°56'3 6.0
2017-Aug-21 14:30N 46°39' W 001°56'5 9.3
2017-Aug-21 14:00N 46°34' W 001°55'5 9.4
2017-Aug-21 13:30N 46°29' W 001°54'5 9.6
2017-Aug-21 13:00N 46°25' W 001°53'5 9.5
2017-Aug-21 12:30N 46°20' W 001°51'5 9.6
2017-Aug-21 12:00N 46°15' W 001°50'2 3.8
2017-Aug-21 11:30N 46°14' W 001°50'0 1.0
2017-Aug-21 11:00N 46°14' W 001°49'1 2.6
2017-Aug-21 10:30N 46°13' W 001°48'1 2.5
2017-Aug-21 10:00N 46°14' W 001°49'2 4.0
2017-Aug-21 09:30N 46°13' W 001°46'1 2.6
2017-Aug-21 09:00N 46°12' W 001°46'2 3.0
2017-Aug-21 08:30N 46°12' W 001°48'1 1.9
2017-Aug-21 08:00N 46°11' W 001°47'2 3.9
2017-Aug-21 07:27N 46°09' W 001°46'3 4.3
2017-Aug-21 06:51N 46°11' W 001°49'0 0.7
2017-Aug-21 06:30N 46°12' W 001°49'2 3.1
2017-Aug-21 06:00N 46°11' W 001°47'1 1.7
2017-Aug-21 05:30N 46°10' W 001°47'2 3.6
2017-Aug-21 05:00N 46°12' W 001°47'2 4.5
2017-Aug-21 04:30N 46°14' W 001°49'5 9.0
2017-Aug-21 04:00N 46°18' W 001°50'5 9.0
2017-Aug-21 03:30N 46°22' W 001°52'4 8.9
2017-Aug-21 03:00N 46°27' W 001°53'4 8.9
2017-Aug-21 02:30N 46°31' W 001°54'4 8.8
2017-Aug-21 02:00N 46°35' W 001°56'4 8.8
2017-Aug-21 01:30N 46°40' W 001°57'2 0.2
2017-Aug-20 16:41N 46°42' W 001°57'0 0.3
2017-Aug-20 16:24N 46°42' W 001°56'0 0.0
2017-Aug-20 15:59N 46°42' W 001°56'1 1.5
2017-Aug-20 15:30N 46°41' W 001°57'5 9.1
2017-Aug-20 15:00N 46°37' W 001°56'5 9.2
2017-Aug-20 14:30N 46°32' W 001°54'5 9.1
2017-Aug-20 14:00N 46°28' W 001°52'5 9.1
2017-Aug-20 13:30N 46°23' W 001°50'5 9.2
2017-Aug-20 13:00N 46°19' W 001°49'5 9.3
2017-Aug-20 12:30N 46°15' W 001°47'5 5.3
2017-Aug-20 11:29N 46°09' W 001°46'2 4.3
2017-Aug-20 11:00N 46°11' W 001°47'1 2.4
2017-Aug-20 10:30N 46°12' W 001°47'2 1.5
2017-Aug-20 09:18N 46°10' W 001°47'1 4.0
2017-Aug-20 09:00N 46°12' W 001°47'2 4.0
2017-Aug-20 08:30N 46°13' W 001°49'4 8.6
2017-Aug-20 08:00N 46°15' W 001°54'4 8.9
2017-Aug-20 07:30N 46°19' W 001°58'4 8.9
2017-Aug-20 07:00N 46°23' W 002°00'4 8.9
2017-Aug-20 06:30N 46°27' W 002°04'5 9.0
2017-Aug-20 06:00N 46°31' W 002°08'2 4.0
2017-Aug-20 05:30N 46°33' W 002°08'1 2.2
2017-Aug-20 04:59N 46°32' W 002°07'1 2.4
2017-Aug-20 04:30N 46°33' W 002°08'3 6.1
2017-Aug-20 04:00N 46°35' W 002°05'4 7.1
2017-Aug-20 03:30N 46°38' W 002°01'4 7.0
2017-Aug-20 03:00N 46°40' W 001°58'2 0.0
2017-Aug-18 03:52N 46°42' W 001°57'0 0.0
2017-Aug-18 03:30N 46°42' W 001°57'0 0.2
2017-Aug-18 03:00N 46°42' W 001°56'2 3.9
2017-Aug-18 02:30N 46°40' W 001°59'5 9.2
2017-Aug-18 02:00N 46°37' W 002°03'5 9.1
2017-Aug-18 01:30N 46°33' W 002°07'5 9.2
2017-Aug-18 01:00N 46°30' W 002°12'5 9.2
2017-Aug-18 00:30N 46°27' W 002°16'7 1.1
2017-Aug-17 17:57N 46°20' W 002°14'1 1.3
2017-Aug-17 17:30N 46°19' W 002°14'1 2.4
2017-Aug-17 17:00N 46°18' W 002°13'2 3.3
2017-Aug-17 16:30N 46°17' W 002°11'4 0.7
2017-Aug-17 10:55N 46°19' W 002°16'2 2.6
2017-Aug-17 10:17N 46°17' W 002°15'1 2.8
2017-Aug-17 10:00N 46°17' W 002°14'6 1.0
2017-Aug-17 04:26N 46°22' W 002°17'2 4.3
2017-Aug-17 03:57N 46°24' W 002°16'1 0.7
2017-Aug-17 03:00N 46°23' W 002°16'2 2.3
2017-Aug-17 02:11N 46°25' W 002°14'2 5.8
2017-Aug-17 01:47N 46°26' W 002°12'2 5.9
2017-Aug-17 01:30N 46°28' W 002°11'3 5.8
2017-Aug-17 01:00N 46°30' W 002°09'3 5.8
2017-Aug-17 00:30N 46°33' W 002°06'3 5.9
2017-Aug-16 23:59N 46°35' W 002°04'3 5.9
2017-Aug-16 23:30N 46°37' W 002°01'3 6.0
2017-Aug-16 23:00N 46°40' W 001°59'2 3.1
2017-Aug-16 22:15N 46°42' W 001°56'0 0.0
2017-Aug-16 22:00N 46°42' W 001°56'0 0.7
2017-Aug-16 21:30N 46°42' W 001°57'5 9.2
2017-Aug-16 21:00N 46°37' W 001°59'5 9.3
2017-Aug-16 20:30N 46°33' W 002°00'4 8.2
2017-Aug-16 20:00N 46°29' W 002°01'3 5.2
2017-Aug-16 19:30N 46°26' W 002°02'2 3.1
2017-Aug-16 19:00N 46°25' W 002°04'1 2.6
2017-Aug-16 18:30N 46°26' W 002°02'2 4.1
2017-Aug-16 18:00N 46°24' W 002°03'1 1.7
2017-Aug-16 17:30N 46°25' W 002°04'1 2.1
2017-Aug-16 17:00N 46°25' W 002°02'2 3.8
2017-Aug-16 16:30N 46°23' W 002°03'2 4.1
2017-Aug-16 16:00N 46°23' W 002°06'2 3.6
2017-Aug-16 15:30N 46°25' W 002°05'0 1.0
2017-Aug-16 15:00N 46°24' W 002°06'2 3.3
2017-Aug-16 14:30N 46°24' W 002°08'2 4.2
2017-Aug-16 13:59N 46°26' W 002°08'1 3.1
2017-Aug-16 13:30N 46°25' W 002°07'0 0.9
2017-Aug-16 13:00N 46°25' W 002°07'1 1.8
2017-Aug-16 12:30N 46°26' W 002°07'2 4.0
2017-Aug-16 11:58N 46°25' W 002°04'1 1.9
2017-Aug-16 11:30N 46°24' W 002°03'2 3.2
2017-Aug-16 11:00N 46°26' W 002°03'0 0.9
2017-Aug-16 10:30N 46°26' W 002°03'1 2.6
2017-Aug-16 10:00N 46°25' W 002°03'1 1.8
2017-Aug-16 09:30N 46°26' W 002°04'1 1.1
2017-Aug-16 09:00N 46°25' W 002°04'2 4.3
2017-Aug-16 08:29N 46°27' W 002°04'1 2.0
2017-Aug-16 08:00N 46°27' W 002°03'1 2.5
2017-Aug-16 07:30N 46°26' W 002°02'2 3.2
2017-Aug-16 07:00N 46°27' W 002°03'4 7.4
2017-Aug-16 06:30N 46°31' W 002°04'2 3.3
2017-Aug-16 06:00N 46°32' W 002°06'0 0.3
2017-Aug-16 05:30N 46°32' W 002°06'1 2.4
2017-Aug-16 05:00N 46°32' W 002°08'2 3.5
2017-Aug-16 04:30N 46°34' W 002°08'1 2.2
2017-Aug-16 04:00N 46°34' W 002°07'0 0.2
2017-Aug-16 03:30N 46°34' W 002°07'0 0.3
2017-Aug-16 03:00N 46°34' W 002°07'2 3.1
2017-Aug-16 02:30N 46°35' W 002°05'3 6.7
2017-Aug-16 02:00N 46°38' W 002°02'3 6.6
2017-Aug-16 01:30N 46°40' W 001°59'2 4.4
2017-Aug-16 01:00N 46°42' W 001°57'0 0.0
2017-Aug-15 20:02N 46°42' W 001°57'0 0.0
2017-Aug-15 20:00N 46°42' W 001°57'0 0.1
2017-Aug-15 19:25N 46°42' W 001°56'0 0.0
2017-Aug-15 18:49N 46°42' W 001°56'0 0.1
2017-Aug-15 18:30N 46°42' W 001°56'0 0.0
2017-Aug-15 18:00N 46°42' W 001°56'0 0.0
2017-Aug-15 17:30N 46°42' W 001°56'3 6.1
2017-Aug-15 17:00N 46°39' W 001°59'2 4.1
2017-Aug-15 16:30N 46°37' W 001°60'3 5.6
2017-Aug-15 16:00N 46°35' W 001°58'4 8.8
2017-Aug-15 15:30N 46°30' W 001°59'4 8.5
2017-Aug-15 15:00N 46°26' W 002°01'1 1.3
2017-Aug-15 14:30N 46°26' W 002°02'2 3.7
2017-Aug-15 14:00N 46°27' W 002°04'2 4.2
2017-Aug-15 13:30N 46°29' W 002°05'2 4.3
2017-Aug-15 13:00N 46°31' W 002°07'2 4.1
2017-Aug-15 12:30N 46°32' W 002°09'1 1.3
2017-Aug-15 12:00N 46°33' W 002°09'2 3.6
2017-Aug-15 11:30N 46°32' W 002°07'2 4.0
2017-Aug-15 11:00N 46°31' W 002°05'1 2.1
2017-Aug-15 10:30N 46°30' W 002°04'2 3.9
2017-Aug-15 10:00N 46°29' W 002°07'2 4.2
2017-Aug-15 09:30N 46°31' W 002°07'1 1.2
2017-Aug-15 09:00N 46°32' W 002°08'2 3.4
2017-Aug-15 08:30N 46°30' W 002°06'2 3.2
2017-Aug-15 08:00N 46°32' W 002°08'1 1.6
2017-Aug-15 07:30N 46°31' W 002°07'1 2.0
2017-Aug-15 07:00N 46°30' W 002°07'2 3.1
2017-Aug-15 06:30N 46°32' W 002°07'0 1.0
2017-Aug-15 06:00N 46°32' W 002°08'1 2.5
2017-Aug-15 05:30N 46°31' W 002°07'2 4.2
2017-Aug-15 05:00N 46°33' W 002°08'1 1.3
2017-Aug-15 04:30N 46°33' W 002°09'2 4.5
2017-Aug-15 04:00N 46°34' W 002°06'0 0.7
2017-Aug-15 03:30N 46°34' W 002°07'0 0.6
2017-Aug-15 03:00N 46°34' W 002°07'0 0.4
2017-Aug-15 02:30N 46°34' W 002°07'0 0.4
2017-Aug-15 02:00N 46°34' W 002°08'0 0.2
2017-Aug-15 01:30N 46°34' W 002°08'0 0.2
2017-Aug-15 01:00N 46°34' W 002°08'0 0.2
2017-Aug-15 00:30N 46°34' W 002°08'3 5.6
2017-Aug-15 00:00N 46°36' W 002°05'3 6.3
2017-Aug-14 23:30N 46°38' W 002°02'3 6.1
2017-Aug-14 23:00N 46°40' W 001°59'2 3.7
2017-Aug-14 22:30N 46°42' W 001°57'0 0.1
2017-Aug-14 21:59N 46°42' W 001°56'2 4.3
2017-Aug-14 21:30N 46°40' W 001°58'4 9.0
2017-Aug-14 21:00N 46°36' W 002°01'4 8.8
2017-Aug-14 20:30N 46°32' W 002°04'4 8.6
2017-Aug-14 20:00N 46°28' W 002°07'4 8.3
2017-Aug-14 19:30N 46°25' W 002°10'4 8.6
2017-Aug-14 18:59N 46°21' W 002°13'4 8.3
2017-Aug-14 18:30N 46°17' W 002°16'1 2.1
2017-Aug-14 18:00N 46°16' W 002°17'2 2.3
2017-Aug-14 17:09N 46°18' W 002°16'1 2.9
2017-Aug-14 16:49N 46°19' W 002°15'2 2.6
2017-Aug-14 16:12N 46°20' W 002°13'1 2.7
2017-Aug-14 16:00N 46°20' W 002°13'1 2.5
2017-Aug-14 15:30N 46°20' W 002°11'2 3.1
2017-Aug-14 15:00N 46°19' W 002°09'2 3.3
2017-Aug-14 14:30N 46°18' W 002°08'2 3.3
2017-Aug-14 14:00N 46°16' W 002°07'2 3.1
2017-Aug-14 13:30N 46°15' W 002°06'7 2.9
2017-Aug-14 11:04N 46°13' W 002°16'0 1.6
2017-Aug-14 10:54N 46°13' W 002°16'  
Track history (hours):
 
Tides and Currents Weather Stations Pressure Air Temp Water Temp Dewpoint Dewpoint Depression Visibility Wind Speed Wind Dir Waves Ship Positions

F/V Le Natif 2

Last reported at 2017-Aug-24 09:58 UTC. Time now 2017-Aug-24 10:24 UTC.
Position N 46°19' W 002°16'.

Length 16 m.

Type: Fishing. MMSI: 228131600.

Date/timePositionNaut miles runAvg speedWind from/ knotsBaromVisibWave heightAir tempDewpointWater temp
2017-Aug-24 09:58N 46°19' W 002°16'1 3.2
2017-Aug-24 09:30N 46°19' W 002°14'1 2.9
2017-Aug-24 09:00N 46°19' W 002°13'3 3.1
2017-Aug-24 08:10N 46°16' W 002°11'1 2.8
2017-Aug-24 07:42N 46°15' W 002°10'1 2.7
2017-Aug-24 07:19N 46°14' W 002°10'15 4.3
2017-Aug-24 03:51N 46°13' W 002°31'0 1.3
2017-Aug-24 03:30N 46°13' W 002°32'2 2.7
2017-Aug-24 02:49N 46°14' W 002°34'1 3.8
2017-Aug-24 02:30N 46°15' W 002°35'2 3.3
2017-Aug-24 02:00N 46°16' W 002°36'1 1.3
2017-Aug-24 01:30N 46°16' W 002°35'2 3.9
2017-Aug-24 00:58N 46°14' W 002°34'1 0.7
2017-Aug-24 00:11N 46°14' W 002°34'0 2.6
2017-Aug-24 00:00N 46°14' W 002°33'0 0.6
2017-Aug-23 23:19N 46°14' W 002°34'1 3.4
2017-Aug-23 23:00N 46°14' W 002°32'1 2.1
2017-Aug-23 22:23N 46°14' W 002°34'1 3.0
2017-Aug-23 22:00N 46°14' W 002°33'2 4.5
2017-Aug-23 21:30N 46°14' W 002°29'5 9.5
2017-Aug-23 21:00N 46°18' W 002°25'5 9.6
2017-Aug-23 20:30N 46°21' W 002°21'5 9.4
2017-Aug-23 20:00N 46°25' W 002°16'5 9.2
2017-Aug-23 19:29N 46°29' W 002°12'4 9.0
2017-Aug-23 19:00N 46°32' W 002°08'4 8.9
2017-Aug-23 18:30N 46°36' W 002°04'4 8.7
2017-Aug-23 18:00N 46°39' W 002°00'4 7.5
2017-Aug-23 17:30N 46°42' W 001°56'0 0.0
2017-Aug-23 17:00N 46°42' W 001°56'0 0.0
2017-Aug-23 16:30N 46°42' W 001°56'3 5.3
2017-Aug-23 16:00N 46°39' W 001°56'4 8.7
2017-Aug-23 15:30N 46°35' W 001°54'4 8.7
2017-Aug-23 15:00N 46°31' W 001°52'4 8.6
2017-Aug-23 14:30N 46°27' W 001°50'9 8.6
2017-Aug-23 13:29N 46°19' W 001°45'5 9.5
2017-Aug-23 13:00N 46°14' W 001°43'5 9.3
2017-Aug-23 12:27N 46°09' W 001°41'6 2.7
2017-Aug-23 10:23N 46°04' W 001°37'2 3.3
2017-Aug-23 09:55N 46°03' W 001°37'1 3.1
2017-Aug-23 09:30N 46°03' W 001°39'8 1.8
2017-Aug-23 05:00N 46°10' W 001°46'4 8.7
2017-Aug-23 04:30N 46°14' W 001°48'4 8.7
2017-Aug-23 04:00N 46°18' W 001°50'4 8.9
2017-Aug-23 03:30N 46°22' W 001°51'4 8.9
2017-Aug-23 03:00N 46°27' W 001°53'4 8.8
2017-Aug-23 02:30N 46°31' W 001°54'4 8.6
2017-Aug-23 02:00N 46°35' W 001°55'4 8.7
2017-Aug-23 01:30N 46°39' W 001°57'2 4.9
2017-Aug-23 01:00N 46°42' W 001°57'0 0.0
2017-Aug-22 15:14N 46°42' W 001°57'0 0.0
2017-Aug-22 15:00N 46°42' W 001°57'0 0.0
2017-Aug-22 14:30N 46°42' W 001°57'0 0.0
2017-Aug-22 14:01N 46°42' W 001°57'0 0.1
2017-Aug-22 13:30N 46°42' W 001°56'0 0.1
2017-Aug-22 13:00N 46°42' W 001°57'0 0.1
2017-Aug-22 12:30N 46°42' W 001°56'0 0.0
2017-Aug-22 12:00N 46°42' W 001°56'1 1.6
2017-Aug-22 11:30N 46°41' W 001°57'2 4.8
2017-Aug-22 11:00N 46°39' W 001°56'3 6.7
2017-Aug-22 10:31N 46°36' W 001°55'4 7.5
2017-Aug-22 10:00N 46°32' W 001°54'4 8.4
2017-Aug-22 09:31N 46°28' W 001°53'4 8.9
2017-Aug-22 09:00N 46°23' W 001°51'5 9.8
2017-Aug-22 08:30N 46°19' W 001°49'5 9.3
2017-Aug-22 08:00N 46°14' W 001°48'5 8.9
2017-Aug-22 07:27N 46°09' W 001°46'4 8.3
2017-Aug-22 06:59N 46°06' W 001°46'1 1.6
2017-Aug-22 06:18N 46°07' W 001°45'2 4.1
2017-Aug-22 05:56N 46°08' W 001°45'2 4.6
2017-Aug-22 05:30N 46°10' W 001°46'2 3.3
2017-Aug-22 05:00N 46°12' W 001°46'3 5.3
2017-Aug-22 04:30N 46°14' W 001°48'4 8.6
2017-Aug-22 04:00N 46°18' W 001°50'4 8.7
2017-Aug-22 03:30N 46°22' W 001°51'4 8.6
2017-Aug-22 03:01N 46°26' W 001°53'4 8.5
2017-Aug-22 02:30N 46°30' W 001°54'4 8.5
2017-Aug-22 02:00N 46°35' W 001°55'4 8.6
2017-Aug-22 01:31N 46°39' W 001°57'3 0.3
2017-Aug-21 16:34N 46°42' W 001°56'0 0.9
2017-Aug-21 16:30N 46°42' W 001°56'0 0.0
2017-Aug-21 16:00N 46°42' W 001°56'0 0.0
2017-Aug-21 15:30N 46°42' W 001°56'0 0.0
2017-Aug-21 15:00N 46°42' W 001°56'3 6.0
2017-Aug-21 14:30N 46°39' W 001°56'5 9.3
2017-Aug-21 14:00N 46°34' W 001°55'5 9.4
2017-Aug-21 13:30N 46°29' W 001°54'5 9.6
2017-Aug-21 13:00N 46°25' W 001°53'5 9.5
2017-Aug-21 12:30N 46°20' W 001°51'5 9.6
2017-Aug-21 12:00N 46°15' W 001°50'2 3.8
2017-Aug-21 11:30N 46°14' W 001°50'0 1.0
2017-Aug-21 11:00N 46°14' W 001°49'1 2.6
2017-Aug-21 10:30N 46°13' W 001°48'1 2.5
2017-Aug-21 10:00N 46°14' W 001°49'2 4.0
2017-Aug-21 09:30N 46°13' W 001°46'1 2.6
2017-Aug-21 09:00N 46°12' W 001°46'2 3.0
2017-Aug-21 08:30N 46°12' W 001°48'1 1.9
2017-Aug-21 08:00N 46°11' W 001°47'2 3.9
2017-Aug-21 07:27N 46°09' W 001°46'3 4.3
2017-Aug-21 06:51N 46°11' W 001°49'0 0.7
2017-Aug-21 06:30N 46°12' W 001°49'2 3.1
2017-Aug-21 06:00N 46°11' W 001°47'1 1.7
2017-Aug-21 05:30N 46°10' W 001°47'2 3.6
2017-Aug-21 05:00N 46°12' W 001°47'2 4.5
2017-Aug-21 04:30N 46°14' W 001°49'5 9.0
2017-Aug-21 04:00N 46°18' W 001°50'5 9.0
2017-Aug-21 03:30N 46°22' W 001°52'4 8.9
2017-Aug-21 03:00N 46°27' W 001°53'4 8.9
2017-Aug-21 02:30N 46°31' W 001°54'4 8.8
2017-Aug-21 02:00N 46°35' W 001°56'4 8.8
2017-Aug-21 01:30N 46°40' W 001°57'2 0.2
2017-Aug-20 16:41N 46°42' W 001°57'0 0.3
2017-Aug-20 16:24N 46°42' W 001°56'0 0.0
2017-Aug-20 15:59N 46°42' W 001°56'1 1.5
2017-Aug-20 15:30N 46°41' W 001°57'5 9.1
2017-Aug-20 15:00N 46°37' W 001°56'5 9.2
2017-Aug-20 14:30N 46°32' W 001°54'5 9.1
2017-Aug-20 14:00N 46°28' W 001°52'5 9.1
2017-Aug-20 13:30N 46°23' W 001°50'5 9.2
2017-Aug-20 13:00N 46°19' W 001°49'5 9.3
2017-Aug-20 12:30N 46°15' W 001°47'5 5.3
2017-Aug-20 11:29N 46°09' W 001°46'2 4.3
2017-Aug-20 11:00N 46°11' W 001°47'1 2.4
2017-Aug-20 10:30N 46°12' W 001°47'2 1.5
2017-Aug-20 09:18N 46°10' W 001°47'1 4.0
2017-Aug-20 09:00N 46°12' W 001°47'2 4.0
2017-Aug-20 08:30N 46°13' W 001°49'4 8.6
2017-Aug-20 08:00N 46°15' W 001°54'4 8.9
2017-Aug-20 07:30N 46°19' W 001°58'4 8.9
2017-Aug-20 07:00N 46°23' W 002°00'4 8.9
2017-Aug-20 06:30N 46°27' W 002°04'5 9.0
2017-Aug-20 06:00N 46°31' W 002°08'2 4.0
2017-Aug-20 05:30N 46°33' W 002°08'1 2.2
2017-Aug-20 04:59N 46°32' W 002°07'1 2.4
2017-Aug-20 04:30N 46°33' W 002°08'3 6.1
2017-Aug-20 04:00N 46°35' W 002°05'4 7.1
2017-Aug-20 03:30N 46°38' W 002°01'4 7.0
2017-Aug-20 03:00N 46°40' W 001°58'2 0.0
2017-Aug-18 03:52N 46°42' W 001°57'0 0.0
2017-Aug-18 03:30N 46°42' W 001°57'0 0.2
2017-Aug-18 03:00N 46°42' W 001°56'2 3.9
2017-Aug-18 02:30N 46°40' W 001°59'5 9.2
2017-Aug-18 02:00N 46°37' W 002°03'5 9.1
2017-Aug-18 01:30N 46°33' W 002°07'5 9.2
2017-Aug-18 01:00N 46°30' W 002°12'5 9.2
2017-Aug-18 00:30N 46°27' W 002°16'7 1.1
2017-Aug-17 17:57N 46°20' W 002°14'1 1.3
2017-Aug-17 17:30N 46°19' W 002°14'1 2.4
2017-Aug-17 17:00N 46°18' W 002°13'2 3.3
2017-Aug-17 16:30N 46°17' W 002°11'4 0.7
2017-Aug-17 10:55N 46°19' W 002°16'2 2.6
2017-Aug-17 10:17N 46°17' W 002°15'1 2.8
2017-Aug-17 10:00N 46°17' W 002°14'6 1.0
2017-Aug-17 04:26N 46°22' W 002°17'2 4.3
2017-Aug-17 03:57N 46°24' W 002°16'1 0.7
2017-Aug-17 03:00N 46°23' W 002°16'2 2.3
2017-Aug-17 02:11N 46°25' W 002°14'2 5.8
2017-Aug-17 01:47N 46°26' W 002°12'2 5.9
2017-Aug-17 01:30N 46°28' W 002°11'3 5.8
2017-Aug-17 01:00N 46°30' W 002°09'3 5.8
2017-Aug-17 00:30N 46°33' W 002°06'3 5.9
2017-Aug-16 23:59N 46°35' W 002°04'3 5.9
2017-Aug-16 23:30N 46°37' W 002°01'3 6.0
2017-Aug-16 23:00N 46°40' W 001°59'2 3.1
2017-Aug-16 22:15N 46°42' W 001°56'0 0.0
2017-Aug-16 22:00N 46°42' W 001°56'0 0.7
2017-Aug-16 21:30N 46°42' W 001°57'5 9.2
2017-Aug-16 21:00N 46°37' W 001°59'5 9.3
2017-Aug-16 20:30N 46°33' W 002°00'4 8.2
2017-Aug-16 20:00N 46°29' W 002°01'3 5.2
2017-Aug-16 19:30N 46°26' W 002°02'2 3.1
2017-Aug-16 19:00N 46°25' W 002°04'1 2.6
2017-Aug-16 18:30N 46°26' W 002°02'2 4.1
2017-Aug-16 18:00N 46°24' W 002°03'1 1.7
2017-Aug-16 17:30N 46°25' W 002°04'1 2.1
2017-Aug-16 17:00N 46°25' W 002°02'2 3.8
2017-Aug-16 16:30N 46°23' W 002°03'2 4.1
2017-Aug-16 16:00N 46°23' W 002°06'2 3.6
2017-Aug-16 15:30N 46°25' W 002°05'0 1.0
2017-Aug-16 15:00N 46°24' W 002°06'2 3.3
2017-Aug-16 14:30N 46°24' W 002°08'2 4.2
2017-Aug-16 13:59N 46°26' W 002°08'1 3.1
2017-Aug-16 13:30N 46°25' W 002°07'0 0.9
2017-Aug-16 13:00N 46°25' W 002°07'1 1.8
2017-Aug-16 12:30N 46°26' W 002°07'2 4.0
2017-Aug-16 11:58N 46°25' W 002°04'1 1.9
2017-Aug-16 11:30N 46°24' W 002°03'2 3.2
2017-Aug-16 11:00N 46°26' W 002°03'0 0.9
2017-Aug-16 10:30N 46°26' W 002°03'1 2.6
2017-Aug-16 10:00N 46°25' W 002°03'1 1.8
2017-Aug-16 09:30N 46°26' W 002°04'1 1.1
2017-Aug-16 09:00N 46°25' W 002°04'2 4.3
2017-Aug-16 08:29N 46°27' W 002°04'1 2.0
2017-Aug-16 08:00N 46°27' W 002°03'1 2.5
2017-Aug-16 07:30N 46°26' W 002°02'2 3.2
2017-Aug-16 07:00N 46°27' W 002°03'4 7.4
2017-Aug-16 06:30N 46°31' W 002°04'2 3.3
2017-Aug-16 06:00N 46°32' W 002°06'0 0.3
2017-Aug-16 05:30N 46°32' W 002°06'1 2.4
2017-Aug-16 05:00N 46°32' W 002°08'2 3.5
2017-Aug-16 04:30N 46°34' W 002°08'1 2.2
2017-Aug-16 04:00N 46°34' W 002°07'0 0.2
2017-Aug-16 03:30N 46°34' W 002°07'0 0.3
2017-Aug-16 03:00N 46°34' W 002°07'2 3.1
2017-Aug-16 02:30N 46°35' W 002°05'3 6.7
2017-Aug-16 02:00N 46°38' W 002°02'3 6.6
2017-Aug-16 01:30N 46°40' W 001°59'2 4.4
2017-Aug-16 01:00N 46°42' W 001°57'0 0.0
2017-Aug-15 20:02N 46°42' W 001°57'0 0.0
2017-Aug-15 20:00N 46°42' W 001°57'0 0.1
2017-Aug-15 19:25N 46°42' W 001°56'0 0.0
2017-Aug-15 18:49N 46°42' W 001°56'0 0.1
2017-Aug-15 18:30N 46°42' W 001°56'0 0.0
2017-Aug-15 18:00N 46°42' W 001°56'0 0.0
2017-Aug-15 17:30N 46°42' W 001°56'3 6.1
2017-Aug-15 17:00N 46°39' W 001°59'2 4.1
2017-Aug-15 16:30N 46°37' W 001°60'3 5.6
2017-Aug-15 16:00N 46°35' W 001°58'4 8.8
2017-Aug-15 15:30N 46°30' W 001°59'4 8.5
2017-Aug-15 15:00N 46°26' W 002°01'1 1.3
2017-Aug-15 14:30N 46°26' W 002°02'2 3.7
2017-Aug-15 14:00N 46°27' W 002°04'2 4.2
2017-Aug-15 13:30N 46°29' W 002°05'2 4.3
2017-Aug-15 13:00N 46°31' W 002°07'2 4.1
2017-Aug-15 12:30N 46°32' W 002°09'1 1.3
2017-Aug-15 12:00N 46°33' W 002°09'2 3.6
2017-Aug-15 11:30N 46°32' W 002°07'2 4.0
2017-Aug-15 11:00N 46°31' W 002°05'1 2.1
2017-Aug-15 10:30N 46°30' W 002°04'2 3.9
2017-Aug-15 10:00N 46°29' W 002°07'2 4.2
2017-Aug-15 09:30N 46°31' W 002°07'1 1.2
2017-Aug-15 09:00N 46°32' W 002°08'2 3.4
2017-Aug-15 08:30N 46°30' W 002°06'2 3.2
2017-Aug-15 08:00N 46°32' W 002°08'1 1.6
2017-Aug-15 07:30N 46°31' W 002°07'1 2.0
2017-Aug-15 07:00N 46°30' W 002°07'2 3.1
2017-Aug-15 06:30N 46°32' W 002°07'0 1.0
2017-Aug-15 06:00N 46°32' W 002°08'1 2.5
2017-Aug-15 05:30N 46°31' W 002°07'2 4.2
2017-Aug-15 05:00N 46°33' W 002°08'1 1.3
2017-Aug-15 04:30N 46°33' W 002°09'2 4.5
2017-Aug-15 04:00N 46°34' W 002°06'0 0.7
2017-Aug-15 03:30N 46°34' W 002°07'0 0.6
2017-Aug-15 03:00N 46°34' W 002°07'0 0.4
2017-Aug-15 02:30N 46°34' W 002°07'0 0.4
2017-Aug-15 02:00N 46°34' W 002°08'0 0.2
2017-Aug-15 01:30N 46°34' W 002°08'0 0.2
2017-Aug-15 01:00N 46°34' W 002°08'0 0.2
2017-Aug-15 00:30N 46°34' W 002°08'3 5.6
2017-Aug-15 00:00N 46°36' W 002°05'3 6.3
2017-Aug-14 23:30N 46°38' W 002°02'3 6.1
2017-Aug-14 23:00N 46°40' W 001°59'2 3.7
2017-Aug-14 22:30N 46°42' W 001°57'0 0.1
2017-Aug-14 21:59N 46°42' W 001°56'2 4.3
2017-Aug-14 21:30N 46°40' W 001°58'4 9.0
2017-Aug-14 21:00N 46°36' W 002°01'4 8.8
2017-Aug-14 20:30N 46°32' W 002°04'4 8.6
2017-Aug-14 20:00N 46°28' W 002°07'4 8.3
2017-Aug-14 19:30N 46°25' W 002°10'4 8.6
2017-Aug-14 18:59N 46°21' W 002°13'4 8.3
2017-Aug-14 18:30N 46°17' W 002°16'1 2.1
2017-Aug-14 18:00N 46°16' W 002°17'2 2.3
2017-Aug-14 17:09N 46°18' W 002°16'1 2.9
2017-Aug-14 16:49N 46°19' W 002°15'2 2.6
2017-Aug-14 16:12N 46°20' W 002°13'1 2.7
2017-Aug-14 16:00N 46°20' W 002°13'1 2.5
2017-Aug-14 15:30N 46°20' W 002°11'2 3.1
2017-Aug-14 15:00N 46°19' W 002°09'2 3.3
2017-Aug-14 14:30N 46°18' W 002°08'2 3.3
2017-Aug-14 14:00N 46°16' W 002°07'2 3.1
2017-Aug-14 13:30N 46°15' W 002°06'7 2.9
2017-Aug-14 11:04N 46°13' W 002°16'0 1.6
2017-Aug-14 10:54N 46°13' W 002°16'  

Dump ship's entire track history